sensor_id;sensor_type;location;lat;lon;timestamp;temperature;humidity
8537;DHT22;4306;50.210;10.628;2022-10-16T00:00:47;15.50;99.90
8537;DHT22;4306;50.210;10.628;2022-10-16T00:03:14;15.50;99.90
8537;DHT22;4306;50.210;10.628;2022-10-16T00:05:42;15.50;99.90
8537;DHT22;4306;50.210;10.628;2022-10-16T00:08:11;15.70;99.90
8537;DHT22;4306;50.210;10.628;2022-10-16T00:10:39;15.60;99.90
8537;DHT22;4306;50.210;10.628;2022-10-16T00:13:07;15.60;99.90
8537;DHT22;4306;50.210;10.628;2022-10-16T00:15:35;15.30;99.90
8537;DHT22;4306;50.210;10.628;2022-10-16T00:18:03;15.30;99.90
8537;DHT22;4306;50.210;10.628;2022-10-16T00:20:30;15.50;99.90
8537;DHT22;4306;50.210;10.628;2022-10-16T00:22:59;15.40;99.90
8537;DHT22;4306;50.210;10.628;2022-10-16T00:25:26;15.40;99.90
8537;DHT22;4306;50.210;10.628;2022-10-16T00:27:53;15.40;99.90
8537;DHT22;4306;50.210;10.628;2022-10-16T00:30:21;15.50;99.90
8537;DHT22;4306;50.210;10.628;2022-10-16T00:32:48;15.50;99.90
8537;DHT22;4306;50.210;10.628;2022-10-16T00:35:15;15.50;99.90
8537;DHT22;4306;50.210;10.628;2022-10-16T00:37:42;15.40;99.90
8537;DHT22;4306;50.210;10.628;2022-10-16T00:40:10;15.40;99.90
8537;DHT22;4306;50.210;10.628;2022-10-16T00:42:37;15.50;99.90
8537;DHT22;4306;50.210;10.628;2022-10-16T00:45:04;15.60;99.90
8537;DHT22;4306;50.210;10.628;2022-10-16T00:47:36;15.50;99.90
8537;DHT22;4306;50.210;10.628;2022-10-16T00:50:07;15.60;99.90
8537;DHT22;4306;50.210;10.628;2022-10-16T00:52:35;15.50;99.90
8537;DHT22;4306;50.210;10.628;2022-10-16T00:55:05;15.50;99.90
8537;DHT22;4306;50.210;10.628;2022-10-16T00:57:32;15.50;99.90
8537;DHT22;4306;50.210;10.628;2022-10-16T01:00:00;15.50;99.90
8537;DHT22;4306;50.210;10.628;2022-10-16T01:02:27;15.50;99.90
8537;DHT22;4306;50.210;10.628;2022-10-16T01:04:55;15.50;99.90
8537;DHT22;4306;50.210;10.628;2022-10-16T01:07:30;15.50;99.90
8537;DHT22;4306;50.210;10.628;2022-10-16T01:10:07;15.50;99.90
8537;DHT22;4306;50.210;10.628;2022-10-16T01:12:42;15.50;99.90
8537;DHT22;4306;50.210;10.628;2022-10-16T01:15:16;15.50;99.90
8537;DHT22;4306;50.210;10.628;2022-10-16T01:17:48;15.60;99.90
8537;DHT22;4306;50.210;10.628;2022-10-16T01:20:27;15.40;99.90
8537;DHT22;4306;50.210;10.628;2022-10-16T01:23:07;15.50;99.90
8537;DHT22;4306;50.210;10.628;2022-10-16T01:28:36;15.60;99.90
8537;DHT22;4306;50.210;10.628;2022-10-16T01:31:05;15.50;99.90
8537;DHT22;4306;50.210;10.628;2022-10-16T01:33:37;15.50;99.90
8537;DHT22;4306;50.210;10.628;2022-10-16T01:36:10;15.60;99.90
8537;DHT22;4306;50.210;10.628;2022-10-16T01:38:39;15.40;99.90
8537;DHT22;4306;50.210;10.628;2022-10-16T01:41:09;15.50;99.90
8537;DHT22;4306;50.210;10.628;2022-10-16T01:43:41;15.50;99.90
8537;DHT22;4306;50.210;10.628;2022-10-16T01:46:09;15.50;99.90
8537;DHT22;4306;50.210;10.628;2022-10-16T01:48:37;15.50;99.90
8537;DHT22;4306;50.210;10.628;2022-10-16T01:51:08;15.50;99.90
8537;DHT22;4306;50.210;10.628;2022-10-16T01:53:36;15.50;99.90
8537;DHT22;4306;50.210;10.628;2022-10-16T01:56:07;15.50;99.90
8537;DHT22;4306;50.210;10.628;2022-10-16T01:58:37;15.50;99.90
8537;DHT22;4306;50.210;10.628;2022-10-16T02:01:09;15.60;99.90
8537;DHT22;4306;50.210;10.628;2022-10-16T02:03:38;15.50;99.90
8537;DHT22;4306;50.210;10.628;2022-10-16T02:06:07;15.50;99.90
8537;DHT22;4306;50.210;10.628;2022-10-16T02:08:35;15.60;99.90
8537;DHT22;4306;50.210;10.628;2022-10-16T02:11:07;15.50;99.90
8537;DHT22;4306;50.210;10.628;2022-10-16T02:13:58;15.50;99.90
8537;DHT22;4306;50.210;10.628;2022-10-16T02:16:35;15.50;99.90
8537;DHT22;4306;50.210;10.628;2022-10-16T02:19:03;15.40;99.90
8537;DHT22;4306;50.210;10.628;2022-10-16T02:21:37;15.40;99.90
8537;DHT22;4306;50.210;10.628;2022-10-16T02:24:12;15.40;99.90
8537;DHT22;4306;50.210;10.628;2022-10-16T02:26:49;15.40;99.90
8537;DHT22;4306;50.210;10.628;2022-10-16T02:29:22;15.20;99.90
8537;DHT22;4306;50.210;10.628;2022-10-16T02:31:55;15.40;99.90
8537;DHT22;4306;50.210;10.628;2022-10-16T02:34:25;15.70;99.90
8537;DHT22;4306;50.210;10.628;2022-10-16T02:36:54;15.40;99.90
8537;DHT22;4306;50.210;10.628;2022-10-16T02:39:22;15.70;99.90
8537;DHT22;4306;50.210;10.628;2022-10-16T02:41:56;15.40;99.90
8537;DHT22;4306;50.210;10.628;2022-10-16T02:44:23;15.40;99.90
8537;DHT22;4306;50.210;10.628;2022-10-16T02:46:53;15.30;99.90
8537;DHT22;4306;50.210;10.628;2022-10-16T02:49:21;15.40;99.90
8537;DHT22;4306;50.210;10.628;2022-10-16T02:51:48;15.40;99.90
8537;DHT22;4306;50.210;10.628;2022-10-16T02:54:15;15.70;99.90
8537;DHT22;4306;50.210;10.628;2022-10-16T02:56:42;15.40;99.90
8537;DHT22;4306;50.210;10.628;2022-10-16T02:59:09;15.40;99.90
8537;DHT22;4306;50.210;10.628;2022-10-16T03:01:36;15.20;99.90
8537;DHT22;4306;50.210;10.628;2022-10-16T03:04:04;15.70;99.90
8537;DHT22;4306;50.210;10.628;2022-10-16T03:06:31;15.40;99.90
8537;DHT22;4306;50.210;10.628;2022-10-16T03:08:58;15.40;99.90
8537;DHT22;4306;50.210;10.628;2022-10-16T03:11:25;15.30;99.90
8537;DHT22;4306;50.210;10.628;2022-10-16T03:13:52;15.60;99.90
8537;DHT22;4306;50.210;10.628;2022-10-16T03:16:18;15.50;99.90
8537;DHT22;4306;50.210;10.628;2022-10-16T03:18:48;15.30;99.90
8537;DHT22;4306;50.210;10.628;2022-10-16T03:21:17;15.30;99.90
8537;DHT22;4306;50.210;10.628;2022-10-16T03:23:44;15.30;99.90
8537;DHT22;4306;50.210;10.628;2022-10-16T03:26:10;15.30;99.90
8537;DHT22;4306;50.210;10.628;2022-10-16T03:28:37;15.30;99.90
8537;DHT22;4306;50.210;10.628;2022-10-16T03:31:04;15.20;99.90
8537;DHT22;4306;50.210;10.628;2022-10-16T03:33:31;15.20;99.90
8537;DHT22;4306;50.210;10.628;2022-10-16T03:35:58;15.20;99.90
8537;DHT22;4306;50.210;10.628;2022-10-16T03:38:27;15.20;99.90
8537;DHT22;4306;50.210;10.628;2022-10-16T03:40:53;15.50;99.90
8537;DHT22;4306;50.210;10.628;2022-10-16T03:43:23;15.20;99.90
8537;DHT22;4306;50.210;10.628;2022-10-16T03:45:50;15.30;99.90
8537;DHT22;4306;50.210;10.628;2022-10-16T03:48:17;15.40;99.90
8537;DHT22;4306;50.210;10.628;2022-10-16T03:50:44;15.30;99.90
8537;DHT22;4306;50.210;10.628;2022-10-16T03:53:11;15.40;99.90
8537;DHT22;4306;50.210;10.628;2022-10-16T03:55:41;15.20;99.90
8537;DHT22;4306;50.210;10.628;2022-10-16T03:58:08;15.30;99.90
8537;DHT22;4306;50.210;10.628;2022-10-16T04:00:35;15.50;99.90
8537;DHT22;4306;50.210;10.628;2022-10-16T04:03:02;15.20;99.90
8537;DHT22;4306;50.210;10.628;2022-10-16T04:05:29;15.20;99.90
8537;DHT22;4306;50.210;10.628;2022-10-16T04:07:56;15.20;99.90
8537;DHT22;4306;50.210;10.628;2022-10-16T04:10:23;15.20;99.90
8537;DHT22;4306;50.210;10.628;2022-10-16T04:12:51;15.40;99.90
8537;DHT22;4306;50.210;10.628;2022-10-16T04:15:20;15.30;99.90
8537;DHT22;4306;50.210;10.628;2022-10-16T04:17:48;15.20;99.90
8537;DHT22;4306;50.210;10.628;2022-10-16T04:20:15;15.40;99.90
8537;DHT22;4306;50.210;10.628;2022-10-16T04:22:42;15.30;99.90
8537;DHT22;4306;50.210;10.628;2022-10-16T04:25:09;15.30;99.90
8537;DHT22;4306;50.210;10.628;2022-10-16T04:27:36;15.20;99.90
8537;DHT22;4306;50.210;10.628;2022-10-16T04:30:06;15.40;99.90
8537;DHT22;4306;50.210;10.628;2022-10-16T04:32:33;15.40;99.90
8537;DHT22;4306;50.210;10.628;2022-10-16T04:35:00;15.40;99.90
8537;DHT22;4306;50.210;10.628;2022-10-16T04:37:28;15.40;99.90
8537;DHT22;4306;50.210;10.628;2022-10-16T04:39:55;15.40;99.90
8537;DHT22;4306;50.210;10.628;2022-10-16T04:42:22;15.50;99.90
8537;DHT22;4306;50.210;10.628;2022-10-16T04:44:49;15.40;99.90
8537;DHT22;4306;50.210;10.628;2022-10-16T04:47:17;15.40;99.90
8537;DHT22;4306;50.210;10.628;2022-10-16T04:49:44;15.50;99.90
8537;DHT22;4306;50.210;10.628;2022-10-16T04:52:11;15.40;99.90
8537;DHT22;4306;50.210;10.628;2022-10-16T04:54:38;15.40;99.90
8537;DHT22;4306;50.210;10.628;2022-10-16T04:57:04;15.40;99.90
8537;DHT22;4306;50.210;10.628;2022-10-16T04:59:31;15.40;99.90
8537;DHT22;4306;50.210;10.628;2022-10-16T05:01:58;15.50;99.90
8537;DHT22;4306;50.210;10.628;2022-10-16T05:04:27;15.40;99.90
8537;DHT22;4306;50.210;10.628;2022-10-16T05:06:53;15.40;99.90
8537;DHT22;4306;50.210;10.628;2022-10-16T05:09:20;15.50;99.90
8537;DHT22;4306;50.210;10.628;2022-10-16T05:11:47;15.30;99.90
8537;DHT22;4306;50.210;10.628;2022-10-16T05:14:14;15.50;99.90
8537;DHT22;4306;50.210;10.628;2022-10-16T05:16:41;15.50;99.90
8537;DHT22;4306;50.210;10.628;2022-10-16T05:19:08;15.40;99.90
8537;DHT22;4306;50.210;10.628;2022-10-16T05:21:37;15.70;99.90
8537;DHT22;4306;50.210;10.628;2022-10-16T05:24:04;15.40;99.90
8537;DHT22;4306;50.210;10.628;2022-10-16T05:26:31;15.50;99.90
8537;DHT22;4306;50.210;10.628;2022-10-16T05:28:57;15.50;99.90
8537;DHT22;4306;50.210;10.628;2022-10-16T05:31:24;15.50;99.90
8537;DHT22;4306;50.210;10.628;2022-10-16T05:33:51;15.40;99.90
8537;DHT22;4306;50.210;10.628;2022-10-16T05:36:18;15.50;99.90
8537;DHT22;4306;50.210;10.628;2022-10-16T05:38:50;15.50;99.90
8537;DHT22;4306;50.210;10.628;2022-10-16T05:41:18;15.20;99.90
8537;DHT22;4306;50.210;10.628;2022-10-16T05:43:47;15.40;99.90
8537;DHT22;4306;50.210;10.628;2022-10-16T05:46:15;15.40;99.90
8537;DHT22;4306;50.210;10.628;2022-10-16T05:48:42;15.50;99.90
8537;DHT22;4306;50.210;10.628;2022-10-16T05:51:10;15.40;99.90
8537;DHT22;4306;50.210;10.628;2022-10-16T05:53:39;15.40;99.90
8537;DHT22;4306;50.210;10.628;2022-10-16T05:56:10;15.40;99.90
8537;DHT22;4306;50.210;10.628;2022-10-16T05:58:38;15.40;99.90
8537;DHT22;4306;50.210;10.628;2022-10-16T06:01:07;15.60;99.90
8537;DHT22;4306;50.210;10.628;2022-10-16T06:03:36;15.60;99.90
8537;DHT22;4306;50.210;10.628;2022-10-16T06:06:08;15.50;99.90
8537;DHT22;4306;50.210;10.628;2022-10-16T06:08:35;15.60;99.90
8537;DHT22;4306;50.210;10.628;2022-10-16T06:11:03;15.50;99.90
8537;DHT22;4306;50.210;10.628;2022-10-16T06:13:31;15.50;99.90
8537;DHT22;4306;50.210;10.628;2022-10-16T06:15:59;15.50;99.90
8537;DHT22;4306;50.210;10.628;2022-10-16T06:18:27;15.80;99.90
8537;DHT22;4306;50.210;10.628;2022-10-16T06:20:55;15.50;99.90
8537;DHT22;4306;50.210;10.628;2022-10-16T06:23:22;15.50;99.90
8537;DHT22;4306;50.210;10.628;2022-10-16T06:25:49;15.60;99.90
8537;DHT22;4306;50.210;10.628;2022-10-16T06:28:16;15.80;99.90
8537;DHT22;4306;50.210;10.628;2022-10-16T06:30:44;15.60;99.90
8537;DHT22;4306;50.210;10.628;2022-10-16T06:33:11;15.90;99.90
8537;DHT22;4306;50.210;10.628;2022-10-16T06:35:38;15.60;99.90
8537;DHT22;4306;50.210;10.628;2022-10-16T06:38:05;16.00;99.90
8537;DHT22;4306;50.210;10.628;2022-10-16T06:40:32;15.60;99.90
8537;DHT22;4306;50.210;10.628;2022-10-16T06:42:59;15.60;99.90
8537;DHT22;4306;50.210;10.628;2022-10-16T06:45:26;15.60;99.90
8537;DHT22;4306;50.210;10.628;2022-10-16T06:47:54;15.70;99.90
8537;DHT22;4306;50.210;10.628;2022-10-16T06:50:21;15.50;99.90
8537;DHT22;4306;50.210;10.628;2022-10-16T06:52:48;15.50;99.90
8537;DHT22;4306;50.210;10.628;2022-10-16T06:55:14;15.70;99.90
8537;DHT22;4306;50.210;10.628;2022-10-16T06:57:43;15.50;99.90
8537;DHT22;4306;50.210;10.628;2022-10-16T07:00:13;15.70;99.90
8537;DHT22;4306;50.210;10.628;2022-10-16T07:02:40;15.60;99.90
8537;DHT22;4306;50.210;10.628;2022-10-16T07:05:12;15.60;99.90
8537;DHT22;4306;50.210;10.628;2022-10-16T07:07:38;15.70;99.90
8537;DHT22;4306;50.210;10.628;2022-10-16T07:10:11;15.80;99.90
8537;DHT22;4306;50.210;10.628;2022-10-16T07:12:38;15.70;99.90
8537;DHT22;4306;50.210;10.628;2022-10-16T07:15:06;15.70;99.90
8537;DHT22;4306;50.210;10.628;2022-10-16T07:17:33;15.80;99.90
8537;DHT22;4306;50.210;10.628;2022-10-16T07:20:00;15.80;99.90
8537;DHT22;4306;50.210;10.628;2022-10-16T07:22:29;15.90;99.90
8537;DHT22;4306;50.210;10.628;2022-10-16T07:24:56;15.80;99.90
8537;DHT22;4306;50.210;10.628;2022-10-16T07:27:23;16.00;99.90
8537;DHT22;4306;50.210;10.628;2022-10-16T07:29:50;16.10;99.90
8537;DHT22;4306;50.210;10.628;2022-10-16T07:32:17;16.20;99.90
8537;DHT22;4306;50.210;10.628;2022-10-16T07:34:44;16.20;99.90
8537;DHT22;4306;50.210;10.628;2022-10-16T07:37:11;16.40;99.90
8537;DHT22;4306;50.210;10.628;2022-10-16T07:39:39;16.30;99.90
8537;DHT22;4306;50.210;10.628;2022-10-16T07:42:06;16.50;99.90
8537;DHT22;4306;50.210;10.628;2022-10-16T07:44:33;16.40;99.90
8537;DHT22;4306;50.210;10.628;2022-10-16T07:47:00;16.50;99.90
8537;DHT22;4306;50.210;10.628;2022-10-16T07:49:27;16.70;99.90
8537;DHT22;4306;50.210;10.628;2022-10-16T07:51:54;16.50;99.90
8537;DHT22;4306;50.210;10.628;2022-10-16T07:54:20;16.40;99.90
8537;DHT22;4306;50.210;10.628;2022-10-16T07:56:49;16.50;99.90
8537;DHT22;4306;50.210;10.628;2022-10-16T07:59:16;16.50;99.90
8537;DHT22;4306;50.210;10.628;2022-10-16T08:01:42;16.70;99.90
8537;DHT22;4306;50.210;10.628;2022-10-16T08:04:10;16.60;99.90
8537;DHT22;4306;50.210;10.628;2022-10-16T08:06:38;16.40;99.90
8537;DHT22;4306;50.210;10.628;2022-10-16T08:09:06;16.40;99.90
8537;DHT22;4306;50.210;10.628;2022-10-16T08:11:33;16.50;99.90
8537;DHT22;4306;50.210;10.628;2022-10-16T08:14:01;16.50;99.90
8537;DHT22;4306;50.210;10.628;2022-10-16T08:16:28;16.50;99.90
8537;DHT22;4306;50.210;10.628;2022-10-16T08:18:55;16.60;99.90
8537;DHT22;4306;50.210;10.628;2022-10-16T08:21:22;16.70;99.90
8537;DHT22;4306;50.210;10.628;2022-10-16T08:23:49;16.70;99.90
8537;DHT22;4306;50.210;10.628;2022-10-16T08:26:16;16.80;99.90
8537;DHT22;4306;50.210;10.628;2022-10-16T08:28:44;17.10;99.90
8537;DHT22;4306;50.210;10.628;2022-10-16T08:31:14;16.80;99.90
8537;DHT22;4306;50.210;10.628;2022-10-16T08:33:43;16.80;99.90
8537;DHT22;4306;50.210;10.628;2022-10-16T08:36:11;16.90;99.90
8537;DHT22;4306;50.210;10.628;2022-10-16T08:38:38;17.10;99.90
8537;DHT22;4306;50.210;10.628;2022-10-16T08:41:23;17.30;99.90
8537;DHT22;4306;50.210;10.628;2022-10-16T08:44:15;17.10;99.90
8537;DHT22;4306;50.210;10.628;2022-10-16T08:46:50;17.40;99.90
8537;DHT22;4306;50.210;10.628;2022-10-16T08:49:20;17.20;99.90
8537;DHT22;4306;50.210;10.628;2022-10-16T08:51:50;17.20;99.90
8537;DHT22;4306;50.210;10.628;2022-10-16T08:54:31;17.20;99.90
8537;DHT22;4306;50.210;10.628;2022-10-16T08:57:07;17.20;99.90
8537;DHT22;4306;50.210;10.628;2022-10-16T08:59:35;17.40;99.90
8537;DHT22;4306;50.210;10.628;2022-10-16T09:02:20;17.20;99.90
8537;DHT22;4306;50.210;10.628;2022-10-16T09:05:09;17.70;99.90
8537;DHT22;4306;50.210;10.628;2022-10-16T09:07:48;17.20;99.90
8537;DHT22;4306;50.210;10.628;2022-10-16T09:10:33;17.20;99.90
8537;DHT22;4306;50.210;10.628;2022-10-16T09:13:10;17.30;99.90
8537;DHT22;4306;50.210;10.628;2022-10-16T09:15:46;17.30;99.90
8537;DHT22;4306;50.210;10.628;2022-10-16T09:18:19;17.30;99.90
8537;DHT22;4306;50.210;10.628;2022-10-16T09:20:51;17.50;99.90
8537;DHT22;4306;50.210;10.628;2022-10-16T09:23:24;17.60;99.90
8537;DHT22;4306;50.210;10.628;2022-10-16T09:25:52;17.60;99.90
8537;DHT22;4306;50.210;10.628;2022-10-16T09:28:19;17.70;99.90
8537;DHT22;4306;50.210;10.628;2022-10-16T09:30:47;17.70;99.90
8537;DHT22;4306;50.210;10.628;2022-10-16T09:33:18;18.10;99.90
8537;DHT22;4306;50.210;10.628;2022-10-16T09:35:48;17.70;99.90
8537;DHT22;4306;50.210;10.628;2022-10-16T09:38:24;17.80;99.90
8537;DHT22;4306;50.210;10.628;2022-10-16T09:40:52;17.90;99.90
8537;DHT22;4306;50.210;10.628;2022-10-16T09:43:22;17.90;99.90
8537;DHT22;4306;50.210;10.628;2022-10-16T09:45:57;18.00;99.90
8537;DHT22;4306;50.210;10.628;2022-10-16T09:48:30;18.00;99.90
8537;DHT22;4306;50.210;10.628;2022-10-16T09:51:00;18.10;99.90
8537;DHT22;4306;50.210;10.628;2022-10-16T09:53:39;18.10;99.90
8537;DHT22;4306;50.210;10.628;2022-10-16T09:56:06;18.20;99.90
8537;DHT22;4306;50.210;10.628;2022-10-16T09:58:34;18.30;99.90
8537;DHT22;4306;50.210;10.628;2022-10-16T10:01:01;18.40;99.90
8537;DHT22;4306;50.210;10.628;2022-10-16T10:03:35;18.80;99.90
8537;DHT22;4306;50.210;10.628;2022-10-16T10:06:17;18.50;99.90
8537;DHT22;4306;50.210;10.628;2022-10-16T10:09:16;18.60;99.90
8537;DHT22;4306;50.210;10.628;2022-10-16T10:11:52;18.70;99.90
8537;DHT22;4306;50.210;10.628;2022-10-16T10:14:22;18.70;99.90
8537;DHT22;4306;50.210;10.628;2022-10-16T10:16:50;18.80;99.90
8537;DHT22;4306;50.210;10.628;2022-10-16T10:19:21;18.80;99.90
8537;DHT22;4306;50.210;10.628;2022-10-16T10:21:49;18.80;99.90
8537;DHT22;4306;50.210;10.628;2022-10-16T10:24:18;18.80;99.90
8537;DHT22;4306;50.210;10.628;2022-10-16T10:26:54;18.60;99.90
8537;DHT22;4306;50.210;10.628;2022-10-16T10:29:39;18.80;99.90
8537;DHT22;4306;50.210;10.628;2022-10-16T10:32:20;18.80;99.90
8537;DHT22;4306;50.210;10.628;2022-10-16T10:35:05;18.70;99.90
8537;DHT22;4306;50.210;10.628;2022-10-16T10:37:47;18.60;99.90
8537;DHT22;4306;50.210;10.628;2022-10-16T10:40:28;18.50;99.90
8537;DHT22;4306;50.210;10.628;2022-10-16T10:43:00;18.50;99.90
8537;DHT22;4306;50.210;10.628;2022-10-16T10:45:40;18.50;99.90
8537;DHT22;4306;50.210;10.628;2022-10-16T10:51:21;18.40;99.90
8537;DHT22;4306;50.210;10.628;2022-10-16T10:53:58;18.30;99.90
8537;DHT22;4306;50.210;10.628;2022-10-16T10:56:42;18.30;99.90
8537;DHT22;4306;50.210;10.628;2022-10-16T10:59:54;18.30;99.90
8537;DHT22;4306;50.210;10.628;2022-10-16T11:02:25;18.00;99.90
8537;DHT22;4306;50.210;10.628;2022-10-16T11:05:16;17.90;99.90
8537;DHT22;4306;50.210;10.628;2022-10-16T11:07:52;17.70;99.90
8537;DHT22;4306;50.210;10.628;2022-10-16T11:10:22;17.50;99.90
8537;DHT22;4306;50.210;10.628;2022-10-16T11:12:57;17.50;99.90
8537;DHT22;4306;50.210;10.628;2022-10-16T11:15:28;17.60;99.90
8537;DHT22;4306;50.210;10.628;2022-10-16T11:18:02;17.60;99.90
8537;DHT22;4306;50.210;10.628;2022-10-16T11:20:32;17.70;99.90
8537;DHT22;4306;50.210;10.628;2022-10-16T11:23:06;17.70;99.90
8537;DHT22;4306;50.210;10.628;2022-10-16T11:25:35;17.90;99.90
8537;DHT22;4306;50.210;10.628;2022-10-16T11:28:08;17.90;99.90
8537;DHT22;4306;50.210;10.628;2022-10-16T11:30:42;18.00;99.90
8537;DHT22;4306;50.210;10.628;2022-10-16T11:33:24;18.00;99.90
8537;DHT22;4306;50.210;10.628;2022-10-16T11:35:57;18.00;99.90
8537;DHT22;4306;50.210;10.628;2022-10-16T11:38:33;18.10;99.90
8537;DHT22;4306;50.210;10.628;2022-10-16T11:41:14;18.20;99.90
8537;DHT22;4306;50.210;10.628;2022-10-16T11:44:03;18.10;99.90
8537;DHT22;4306;50.210;10.628;2022-10-16T11:46:34;18.00;99.90
8537;DHT22;4306;50.210;10.628;2022-10-16T11:49:08;18.00;99.90
8537;DHT22;4306;50.210;10.628;2022-10-16T11:51:40;18.00;99.90
8537;DHT22;4306;50.210;10.628;2022-10-16T11:54:18;18.10;99.90
8537;DHT22;4306;50.210;10.628;2022-10-16T11:56:49;18.00;99.90
8537;DHT22;4306;50.210;10.628;2022-10-16T11:59:22;18.10;99.90
8537;DHT22;4306;50.210;10.628;2022-10-16T12:01:54;18.10;99.90
8537;DHT22;4306;50.210;10.628;2022-10-16T12:04:29;18.20;99.90
8537;DHT22;4306;50.210;10.628;2022-10-16T12:07:03;18.40;99.90
8537;DHT22;4306;50.210;10.628;2022-10-16T12:09:35;18.30;99.90
8537;DHT22;4306;50.210;10.628;2022-10-16T12:12:03;18.40;99.90
8537;DHT22;4306;50.210;10.628;2022-10-16T12:14:36;18.50;99.90
8537;DHT22;4306;50.210;10.628;2022-10-16T12:19:57;18.50;99.90
8537;DHT22;4306;50.210;10.628;2022-10-16T12:22:28;18.40;99.90
8537;DHT22;4306;50.210;10.628;2022-10-16T12:24:57;18.40;99.90
8537;DHT22;4306;50.210;10.628;2022-10-16T12:27:28;18.60;99.90
8537;DHT22;4306;50.210;10.628;2022-10-16T12:29:56;18.50;99.90
8537;DHT22;4306;50.210;10.628;2022-10-16T12:32:29;18.30;99.90
8537;DHT22;4306;50.210;10.628;2022-10-16T12:34:57;18.70;99.90
8537;DHT22;4306;50.210;10.628;2022-10-16T12:37:27;18.70;99.90
8537;DHT22;4306;50.210;10.628;2022-10-16T12:39:59;18.80;99.90
8537;DHT22;4306;50.210;10.628;2022-10-16T12:42:37;18.80;99.90
8537;DHT22;4306;50.210;10.628;2022-10-16T12:45:30;18.90;99.90
8537;DHT22;4306;50.210;10.628;2022-10-16T12:47:58;19.00;99.90
8537;DHT22;4306;50.210;10.628;2022-10-16T12:50:32;19.10;99.90
8537;DHT22;4306;50.210;10.628;2022-10-16T12:53:00;19.10;99.90
8537;DHT22;4306;50.210;10.628;2022-10-16T12:55:40;19.10;99.90
8537;DHT22;4306;50.210;10.628;2022-10-16T12:58:27;19.20;99.90
8537;DHT22;4306;50.210;10.628;2022-10-16T13:01:02;19.20;99.90
8537;DHT22;4306;50.210;10.628;2022-10-16T13:04:01;19.30;99.90
8537;DHT22;4306;50.210;10.628;2022-10-16T13:06:37;19.30;99.90
8537;DHT22;4306;50.210;10.628;2022-10-16T13:09:14;19.40;99.90
8537;DHT22;4306;50.210;10.628;2022-10-16T13:11:58;19.50;99.90
8537;DHT22;4306;50.210;10.628;2022-10-16T13:14:44;19.40;99.90
8537;DHT22;4306;50.210;10.628;2022-10-16T13:17:21;19.40;99.90
8537;DHT22;4306;50.210;10.628;2022-10-16T13:19:59;19.50;99.90
8537;DHT22;4306;50.210;10.628;2022-10-16T13:22:33;19.40;99.90
8537;DHT22;4306;50.210;10.628;2022-10-16T13:25:14;19.50;99.90
8537;DHT22;4306;50.210;10.628;2022-10-16T13:27:49;19.50;99.90
8537;DHT22;4306;50.210;10.628;2022-10-16T13:30:20;19.50;99.90
8537;DHT22;4306;50.210;10.628;2022-10-16T13:32:49;19.50;99.90
8537;DHT22;4306;50.210;10.628;2022-10-16T13:35:21;19.60;99.90
8537;DHT22;4306;50.210;10.628;2022-10-16T13:37:48;19.60;99.90
8537;DHT22;4306;50.210;10.628;2022-10-16T13:40:20;19.70;99.90
8537;DHT22;4306;50.210;10.628;2022-10-16T13:42:50;19.80;99.90
8537;DHT22;4306;50.210;10.628;2022-10-16T13:45:18;19.90;99.90
8537;DHT22;4306;50.210;10.628;2022-10-16T13:47:46;19.90;99.90
8537;DHT22;4306;50.210;10.628;2022-10-16T13:50:14;19.90;99.90
8537;DHT22;4306;50.210;10.628;2022-10-16T13:52:41;19.90;99.90
8537;DHT22;4306;50.210;10.628;2022-10-16T13:55:11;19.90;99.90
8537;DHT22;4306;50.210;10.628;2022-10-16T13:57:38;19.90;99.90
8537;DHT22;4306;50.210;10.628;2022-10-16T14:00:19;20.00;99.90
8537;DHT22;4306;50.210;10.628;2022-10-16T14:02:51;19.90;99.90
8537;DHT22;4306;50.210;10.628;2022-10-16T14:05:18;19.90;99.90
8537;DHT22;4306;50.210;10.628;2022-10-16T14:07:49;19.80;99.90
8537;DHT22;4306;50.210;10.628;2022-10-16T14:10:22;19.80;99.90
8537;DHT22;4306;50.210;10.628;2022-10-16T14:13:00;19.70;99.90
8537;DHT22;4306;50.210;10.628;2022-10-16T14:15:31;19.70;99.90
8537;DHT22;4306;50.210;10.628;2022-10-16T14:17:59;19.70;99.90
8537;DHT22;4306;50.210;10.628;2022-10-16T14:20:27;19.70;99.90
8537;DHT22;4306;50.210;10.628;2022-10-16T14:23:02;19.70;99.90
8537;DHT22;4306;50.210;10.628;2022-10-16T14:25:31;19.70;99.90
8537;DHT22;4306;50.210;10.628;2022-10-16T14:28:04;19.70;99.90
8537;DHT22;4306;50.210;10.628;2022-10-16T14:30:34;19.60;99.90
8537;DHT22;4306;50.210;10.628;2022-10-16T14:33:04;19.60;99.90
8537;DHT22;4306;50.210;10.628;2022-10-16T14:35:33;19.60;99.90
8537;DHT22;4306;50.210;10.628;2022-10-16T14:38:02;19.70;99.90
8537;DHT22;4306;50.210;10.628;2022-10-16T14:40:31;19.50;99.90
8537;DHT22;4306;50.210;10.628;2022-10-16T14:42:58;19.50;99.90
8537;DHT22;4306;50.210;10.628;2022-10-16T14:45:28;19.50;99.90
8537;DHT22;4306;50.210;10.628;2022-10-16T14:47:59;19.50;99.90
8537;DHT22;4306;50.210;10.628;2022-10-16T14:50:26;19.40;99.90
8537;DHT22;4306;50.210;10.628;2022-10-16T14:52:54;19.40;99.90
8537;DHT22;4306;50.210;10.628;2022-10-16T14:55:21;19.40;99.90
8537;DHT22;4306;50.210;10.628;2022-10-16T14:57:51;19.40;99.90
8537;DHT22;4306;50.210;10.628;2022-10-16T15:00:20;19.50;99.90
8537;DHT22;4306;50.210;10.628;2022-10-16T15:02:48;19.30;99.90
8537;DHT22;4306;50.210;10.628;2022-10-16T15:05:19;19.30;99.90
8537;DHT22;4306;50.210;10.628;2022-10-16T15:07:48;19.40;99.90
8537;DHT22;4306;50.210;10.628;2022-10-16T15:10:16;19.40;99.90
8537;DHT22;4306;50.210;10.628;2022-10-16T15:12:43;19.30;99.90
8537;DHT22;4306;50.210;10.628;2022-10-16T15:15:26;19.40;99.90
8537;DHT22;4306;50.210;10.628;2022-10-16T15:17:55;19.30;99.90
8537;DHT22;4306;50.210;10.628;2022-10-16T15:20:25;19.30;99.90
8537;DHT22;4306;50.210;10.628;2022-10-16T15:22:52;19.30;99.90
8537;DHT22;4306;50.210;10.628;2022-10-16T15:25:30;19.20;99.90
8537;DHT22;4306;50.210;10.628;2022-10-16T15:27:58;19.30;99.90
8537;DHT22;4306;50.210;10.628;2022-10-16T15:30:25;19.30;99.90
8537;DHT22;4306;50.210;10.628;2022-10-16T15:32:52;19.40;99.90
8537;DHT22;4306;50.210;10.628;2022-10-16T15:35:19;19.10;99.90
8537;DHT22;4306;50.210;10.628;2022-10-16T15:37:51;19.20;99.90
8537;DHT22;4306;50.210;10.628;2022-10-16T15:40:24;19.00;99.90
8537;DHT22;4306;50.210;10.628;2022-10-16T15:42:54;19.20;99.90
8537;DHT22;4306;50.210;10.628;2022-10-16T15:45:21;19.20;99.90
8537;DHT22;4306;50.210;10.628;2022-10-16T15:47:48;19.20;99.90
8537;DHT22;4306;50.210;10.628;2022-10-16T15:50:15;19.20;99.90
8537;DHT22;4306;50.210;10.628;2022-10-16T15:52:42;19.20;99.90
8537;DHT22;4306;50.210;10.628;2022-10-16T15:55:12;19.20;99.90
8537;DHT22;4306;50.210;10.628;2022-10-16T15:57:40;19.10;99.90
8537;DHT22;4306;50.210;10.628;2022-10-16T16:00:10;19.10;99.90
8537;DHT22;4306;50.210;10.628;2022-10-16T16:02:40;19.00;99.90
8537;DHT22;4306;50.210;10.628;2022-10-16T16:05:08;19.00;99.90
8537;DHT22;4306;50.210;10.628;2022-10-16T16:07:37;18.90;99.90
8537;DHT22;4306;50.210;10.628;2022-10-16T16:10:06;18.80;99.90
8537;DHT22;4306;50.210;10.628;2022-10-16T16:12:35;18.80;99.90
8537;DHT22;4306;50.210;10.628;2022-10-16T16:15:03;18.80;99.90